createdAt,value
2019-02-19T00:00:29.217Z,6.50
2019-02-19T00:01:03.155Z,6.44
2019-02-19T00:01:36.346Z,6.44
2019-02-19T00:02:10.835Z,6.50
2019-02-19T00:02:43.894Z,6.44
2019-02-19T00:03:16.762Z,6.44
2019-02-19T00:03:51.456Z,6.44
2019-02-19T00:04:24.338Z,6.44
2019-02-19T00:04:57.262Z,6.44
2019-02-19T00:05:30.154Z,6.44
2019-02-19T00:06:03.246Z,6.44
2019-02-19T00:06:36.236Z,6.44
2019-02-19T00:07:09.351Z,6.44
2019-02-19T00:07:42.336Z,6.44
2019-02-19T00:08:15.247Z,6.44
2019-02-19T00:08:48.142Z,6.44
2019-02-19T00:09:21.148Z,6.44
2019-02-19T00:09:53.937Z,6.44
2019-02-19T00:10:26.946Z,6.44
2019-02-19T00:10:59.948Z,6.37
2019-02-19T00:11:32.848Z,6.37
2019-02-19T00:12:05.854Z,6.37
2019-02-19T00:12:38.924Z,6.37
2019-02-19T00:13:11.813Z,6.37
2019-02-19T00:13:44.866Z,6.31
2019-02-19T00:14:17.882Z,6.31
2019-02-19T00:14:50.904Z,6.31
2019-02-19T00:15:24.003Z,6.31
2019-02-19T00:15:56.938Z,6.31
2019-02-19T00:16:29.955Z,6.31
2019-02-19T00:17:04.495Z,6.31
2019-02-19T00:17:37.481Z,6.31
2019-02-19T00:18:10.303Z,6.31
2019-02-19T00:18:43.390Z,6.31
2019-02-19T00:19:16.232Z,6.31
2019-02-19T00:19:49.235Z,6.31
2019-02-19T00:20:22.050Z,6.31
2019-02-19T00:20:55.053Z,6.31
2019-02-19T00:21:28.096Z,6.31
2019-02-19T00:22:01.012Z,6.31
2019-02-19T00:22:33.971Z,6.31
2019-02-19T00:23:06.851Z,6.31
2019-02-19T00:23:39.767Z,6.31
2019-02-19T00:24:12.769Z,6.31
2019-02-19T00:24:45.882Z,6.31
2019-02-19T00:25:18.787Z,6.25
2019-02-19T00:25:51.720Z,6.31
2019-02-19T00:26:24.606Z,6.31
2019-02-19T00:26:57.668Z,6.31
2019-02-19T00:27:30.570Z,6.25
2019-02-19T00:28:03.630Z,6.31
2019-02-19T00:28:36.501Z,6.25
2019-02-19T00:29:09.555Z,6.25
2019-02-19T00:29:42.547Z,6.25
2019-02-19T00:30:15.571Z,6.25
2019-02-19T00:30:48.587Z,6.25
2019-02-19T00:31:21.646Z,6.25
2019-02-19T00:31:54.635Z,6.25
2019-02-19T00:32:28.664Z,6.25
2019-02-19T00:33:01.589Z,6.25
2019-02-19T00:33:34.620Z,6.25
2019-02-19T00:34:07.546Z,6.25
2019-02-19T00:34:40.489Z,6.25
2019-02-19T00:35:13.559Z,6.25
2019-02-19T00:35:46.840Z,6.25
2019-02-19T00:36:19.847Z,6.25
2019-02-19T00:36:53.082Z,6.25
2019-02-19T00:37:26.209Z,6.25
2019-02-19T00:37:59.013Z,6.25
2019-02-19T00:38:32.012Z,6.25
2019-02-19T00:39:05.412Z,6.25
2019-02-19T00:39:38.302Z,6.25
2019-02-19T00:40:11.449Z,6.25
2019-02-19T00:40:44.538Z,6.25
2019-02-19T00:41:17.353Z,6.25
2019-02-19T00:41:50.241Z,6.25
2019-02-19T00:42:23.790Z,6.31
2019-02-19T00:42:56.699Z,6.31
2019-02-19T00:43:31.347Z,6.31
2019-02-19T00:44:04.330Z,6.31
2019-02-19T00:44:38.599Z,6.31
2019-02-19T00:45:16.666Z,6.31
2019-02-19T00:45:46.405Z,6.31
2019-02-19T00:46:19.359Z,6.31
2019-02-19T00:46:52.346Z,6.37
2019-02-19T00:47:25.209Z,6.37
2019-02-19T00:47:58.376Z,6.37
2019-02-19T00:48:31.291Z,6.37
2019-02-19T00:49:04.335Z,6.37
2019-02-19T00:49:37.183Z,6.37
2019-02-19T00:50:11.201Z,6.37
2019-02-19T00:50:44.122Z,6.37
2019-02-19T00:51:17.107Z,6.37
2019-02-19T00:51:50.048Z,6.37
2019-02-19T00:52:23.569Z,6.37
2019-02-19T00:52:58.194Z,6.37
2019-02-19T00:53:31.133Z,6.37
2019-02-19T00:54:04.089Z,6.37
2019-02-19T00:54:37.051Z,6.31
2019-02-19T00:55:10.373Z,6.31
2019-02-19T00:55:43.498Z,6.31
2019-02-19T00:56:17.663Z,6.31
2019-02-19T00:56:50.751Z,6.31
2019-02-19T00:57:23.781Z,6.31
2019-02-19T00:57:56.640Z,6.25
2019-02-19T00:58:29.639Z,6.25
2019-02-19T00:59:02.779Z,6.25
2019-02-19T00:59:35.751Z,6.25
2019-02-19T01:00:11.741Z,6.25
2019-02-19T01:00:44.801Z,6.25
2019-02-19T01:01:17.855Z,6.25
2019-02-19T01:01:50.837Z,6.25
2019-02-19T01:02:23.976Z,6.19
2019-02-19T01:02:57.053Z,6.19
2019-02-19T01:03:30.157Z,6.19
2019-02-19T01:04:03.587Z,6.19
2019-02-19T01:04:36.629Z,6.19
2019-02-19T01:05:09.801Z,6.19
2019-02-19T01:05:43.177Z,6.19
2019-02-19T01:06:16.214Z,6.19
2019-02-19T01:06:49.251Z,6.12
2019-02-19T01:07:22.219Z,6.12
2019-02-19T01:07:55.289Z,6.12
2019-02-19T01:08:28.281Z,6.12
2019-02-19T01:09:01.303Z,6.12
2019-02-19T01:09:35.743Z,6.12
2019-02-19T01:10:08.879Z,6.06
2019-02-19T01:10:41.905Z,6.06
2019-02-19T01:11:14.785Z,6.06
2019-02-19T01:11:47.815Z,6.06
2019-02-19T01:12:21.091Z,6.06
2019-02-19T01:12:54.067Z,6.06
2019-02-19T01:13:27.093Z,6.06
2019-02-19T01:14:01.227Z,6.06
2019-02-19T01:14:34.235Z,6.00
2019-02-19T01:15:08.524Z,6.00
2019-02-19T01:15:41.485Z,6.00
2019-02-19T01:16:14.369Z,6.00
2019-02-19T01:16:47.419Z,6.00
2019-02-19T01:17:20.452Z,6.00
2019-02-19T01:17:53.427Z,6.00
2019-02-19T01:18:26.487Z,5.94
2019-02-19T01:18:59.561Z,5.94
2019-02-19T01:19:32.481Z,5.94
2019-02-19T01:20:06.614Z,5.94
2019-02-19T01:20:39.719Z,5.94
2019-02-19T01:21:12.649Z,5.94
2019-02-19T01:21:45.609Z,5.94
2019-02-19T01:22:18.695Z,5.94
2019-02-19T01:22:51.779Z,5.87
2019-02-19T01:23:24.735Z,5.87
2019-02-19T01:23:57.801Z,5.94
2019-02-19T01:24:30.725Z,5.87
2019-02-19T01:25:04.125Z,5.87
2019-02-19T01:25:37.117Z,5.87
2019-02-19T01:26:10.390Z,5.87
2019-02-19T01:26:43.689Z,5.87
2019-02-19T01:27:16.473Z,5.81
2019-02-19T01:27:49.533Z,5.81
2019-02-19T01:28:22.431Z,5.81
2019-02-19T01:28:55.339Z,5.81
2019-02-19T01:29:28.222Z,5.81
2019-02-19T01:30:01.076Z,5.81
2019-02-19T01:30:34.143Z,5.81
2019-02-19T01:31:08.010Z,5.81
2019-02-19T01:31:40.885Z,5.81
2019-02-19T01:32:14.611Z,5.81
2019-02-19T01:32:47.484Z,5.81
2019-02-19T01:33:20.393Z,5.81
2019-02-19T01:33:53.276Z,5.81
2019-02-19T01:34:26.112Z,5.81
2019-02-19T01:34:59.024Z,5.75
2019-02-19T01:35:32.056Z,5.75
2019-02-19T01:36:04.972Z,5.75
2019-02-19T01:36:37.883Z,5.75
2019-02-19T01:37:10.767Z,5.75
2019-02-19T01:37:43.626Z,5.75
2019-02-19T01:38:16.433Z,5.75
2019-02-19T01:38:49.371Z,5.81
2019-02-19T01:39:23.357Z,5.75
2019-02-19T01:39:56.205Z,5.75
2019-02-19T01:40:29.073Z,5.75
2019-02-19T01:41:02.099Z,5.75
2019-02-19T01:41:34.889Z,5.75
2019-02-19T01:42:09.459Z,5.75
2019-02-19T01:42:42.351Z,5.75
2019-02-19T01:43:15.253Z,5.75
2019-02-19T01:43:48.263Z,5.75
2019-02-19T01:44:21.127Z,5.75
2019-02-19T01:44:54.135Z,5.75
2019-02-19T01:45:34.019Z,5.75
2019-02-19T01:46:03.743Z,5.75
2019-02-19T01:46:36.762Z,5.75
2019-02-19T01:47:09.743Z,5.75
2019-02-19T01:47:42.759Z,5.69
2019-02-19T01:48:15.861Z,5.69
2019-02-19T01:48:50.539Z,5.69
2019-02-19T01:49:23.543Z,5.69
2019-02-19T01:49:56.593Z,5.69
2019-02-19T01:50:29.577Z,5.69
2019-02-19T01:51:02.632Z,5.69
2019-02-19T01:51:35.487Z,5.69
2019-02-19T01:52:08.749Z,5.69
2019-02-19T01:52:41.651Z,5.69
2019-02-19T01:53:14.632Z,5.62
2019-02-19T01:53:47.414Z,5.62
2019-02-19T01:54:20.563Z,5.62
2019-02-19T01:54:53.372Z,5.62
2019-02-19T01:55:27.466Z,5.62
2019-02-19T01:56:00.359Z,5.62
2019-02-19T01:56:33.370Z,5.62
2019-02-19T01:57:06.359Z,5.62
2019-02-19T01:57:39.405Z,5.62
2019-02-19T01:58:12.412Z,5.62
2019-02-19T01:58:45.451Z,5.62
2019-02-19T01:59:18.356Z,5.62
2019-02-19T01:59:51.366Z,5.62
2019-02-19T02:00:24.367Z,5.62
2019-02-19T02:00:57.444Z,5.62
2019-02-19T02:01:30.564Z,5.56
2019-02-19T02:02:04.761Z,5.56
2019-02-19T02:02:38.782Z,5.56
2019-02-19T02:03:11.844Z,5.56
2019-02-19T02:03:44.818Z,5.56
2019-02-19T02:04:17.741Z,5.56
2019-02-19T02:04:50.546Z,5.56
2019-02-19T02:05:23.585Z,5.56
2019-02-19T02:05:56.485Z,5.56
2019-02-19T02:06:30.436Z,5.56
2019-02-19T02:07:04.554Z,5.56
2019-02-19T02:07:37.756Z,5.56
2019-02-19T02:08:10.534Z,5.56
2019-02-19T02:08:43.497Z,5.56
2019-02-19T02:09:16.308Z,5.56
2019-02-19T02:09:50.926Z,5.50
2019-02-19T02:10:23.720Z,5.50
2019-02-19T02:10:56.546Z,5.50
2019-02-19T02:11:29.430Z,5.50
2019-02-19T02:12:02.472Z,5.50
2019-02-19T02:12:35.472Z,5.50
2019-02-19T02:13:08.548Z,5.50
2019-02-19T02:13:41.445Z,5.44
2019-02-19T02:14:14.454Z,5.44
2019-02-19T02:14:47.442Z,5.50
2019-02-19T02:15:20.452Z,5.50
2019-02-19T02:15:53.264Z,5.50
2019-02-19T02:16:26.214Z,5.50
2019-02-19T02:16:59.127Z,5.50
2019-02-19T02:17:32.135Z,5.50
2019-02-19T02:18:05.012Z,5.50
2019-02-19T02:18:37.866Z,5.50
2019-02-19T02:19:10.856Z,5.44
2019-02-19T02:19:43.914Z,5.44
2019-02-19T02:20:16.875Z,5.44
2019-02-19T02:20:49.920Z,5.44
2019-02-19T02:21:22.930Z,5.44
2019-02-19T02:21:55.864Z,5.44
2019-02-19T02:22:28.771Z,5.44
2019-02-19T02:23:01.780Z,5.37
2019-02-19T02:23:34.670Z,5.37
2019-02-19T02:24:07.626Z,5.37
2019-02-19T02:24:40.513Z,5.37
2019-02-19T02:25:13.441Z,5.37
2019-02-19T02:25:46.864Z,5.37
2019-02-19T02:26:19.914Z,5.31
2019-02-19T02:26:52.914Z,5.31
2019-02-19T02:27:25.859Z,5.31
2019-02-19T02:27:58.722Z,5.31
2019-02-19T02:28:33.298Z,5.31
2019-02-19T02:29:06.300Z,5.31
2019-02-19T02:29:39.222Z,5.31
2019-02-19T02:30:12.218Z,5.31
2019-02-19T02:30:45.270Z,5.31
2019-02-19T02:31:18.142Z,5.31
2019-02-19T02:31:50.948Z,5.31
2019-02-19T02:32:24.938Z,5.31
2019-02-19T02:32:58.119Z,5.25
2019-02-19T02:33:31.046Z,5.25
2019-02-19T02:34:04.076Z,5.25
2019-02-19T02:34:37.059Z,5.25
2019-02-19T02:35:11.412Z,5.25
2019-02-19T02:35:44.506Z,5.25
2019-02-19T02:36:17.613Z,5.25
2019-02-19T02:36:51.600Z,5.25
2019-02-19T02:37:24.629Z,5.25
2019-02-19T02:37:57.471Z,5.25
2019-02-19T02:38:30.470Z,5.25
2019-02-19T02:39:04.353Z,5.19
2019-02-19T02:39:37.326Z,5.19
2019-02-19T02:40:10.334Z,5.19
2019-02-19T02:40:43.288Z,5.19
2019-02-19T02:41:16.104Z,5.12
2019-02-19T02:41:49.060Z,5.12
2019-02-19T02:42:22.336Z,5.12
2019-02-19T02:42:55.249Z,5.12
2019-02-19T02:43:29.243Z,5.12
2019-02-19T02:44:02.296Z,5.12
2019-02-19T02:44:35.285Z,5.12
2019-02-19T02:45:08.520Z,5.12
2019-02-19T02:45:41.414Z,5.12
2019-02-19T02:46:14.351Z,5.12
2019-02-19T02:46:47.368Z,5.12
2019-02-19T02:47:22.041Z,5.12
2019-02-19T02:47:55.034Z,5.12
2019-02-19T02:48:27.890Z,5.12
2019-02-19T02:49:00.683Z,5.06
2019-02-19T02:49:34.745Z,5.06
2019-02-19T02:50:07.850Z,5.06
2019-02-19T02:50:40.682Z,5.06
2019-02-19T02:51:13.674Z,5.06
2019-02-19T02:51:46.709Z,5.06
2019-02-19T02:52:19.499Z,5.06
2019-02-19T02:52:52.344Z,5.00
2019-02-19T02:53:25.120Z,5.00
2019-02-19T02:53:58.155Z,5.00
2019-02-19T02:54:31.157Z,5.00
2019-02-19T02:55:04.280Z,5.00
2019-02-19T02:55:37.202Z,5.06
2019-02-19T02:56:10.138Z,5.00
2019-02-19T02:56:43.036Z,5.00
2019-02-19T02:57:16.094Z,5.00
2019-02-19T02:57:48.987Z,5.00
2019-02-19T02:58:21.992Z,5.00
2019-02-19T02:58:54.881Z,5.00
2019-02-19T02:59:27.925Z,5.00
2019-02-19T03:00:00.908Z,5.00
2019-02-19T03:00:34.174Z,5.00
2019-02-19T03:01:07.129Z,5.00
2019-02-19T03:01:39.916Z,5.00
2019-02-19T03:02:12.910Z,4.94
2019-02-19T03:02:45.992Z,4.94
2019-02-19T03:03:19.190Z,4.94
2019-02-19T03:03:52.234Z,4.94
2019-02-19T03:04:25.321Z,4.94
2019-02-19T03:04:58.170Z,4.94
2019-02-19T03:05:31.305Z,4.94
2019-02-19T03:06:10.176Z,4.94
2019-02-19T03:07:04.296Z,4.94
2019-02-19T03:07:40.717Z,4.87
2019-02-19T03:08:13.933Z,4.87
2019-02-19T03:08:46.878Z,4.87
2019-02-19T03:09:19.978Z,4.87
2019-02-19T03:09:52.921Z,4.87
2019-02-19T03:10:25.935Z,4.87
2019-02-19T03:10:58.947Z,4.87
2019-02-19T03:11:31.933Z,4.87
2019-02-19T03:12:04.955Z,4.87
2019-02-19T03:12:37.869Z,4.87
2019-02-19T03:13:10.761Z,4.87
2019-02-19T03:13:43.742Z,4.81
2019-02-19T03:14:16.677Z,4.81
2019-02-19T03:14:51.251Z,4.81
2019-02-19T03:15:24.343Z,4.81
2019-02-19T03:16:02.553Z,4.81
2019-02-19T03:16:32.339Z,4.81
2019-02-19T03:17:05.509Z,4.81
2019-02-19T03:17:38.581Z,4.75
2019-02-19T03:18:11.411Z,4.75
2019-02-19T03:18:44.438Z,4.81
2019-02-19T03:19:17.383Z,4.81
2019-02-19T03:19:50.327Z,4.81
2019-02-19T03:20:23.277Z,4.81
2019-02-19T03:20:57.320Z,4.81
2019-02-19T03:21:30.313Z,4.75
2019-02-19T03:22:03.267Z,4.75
2019-02-19T03:22:36.493Z,4.75
2019-02-19T03:23:09.413Z,4.75
2019-02-19T03:23:42.256Z,4.75
2019-02-19T03:24:15.415Z,4.75
2019-02-19T03:24:48.480Z,4.75
2019-02-19T03:25:21.551Z,4.81
2019-02-19T03:25:54.542Z,4.81
2019-02-19T03:26:27.504Z,4.81
2019-02-19T03:27:00.565Z,4.81
2019-02-19T03:27:33.536Z,4.75
2019-02-19T03:28:06.499Z,4.75
2019-02-19T03:28:39.372Z,4.75
2019-02-19T03:29:12.308Z,4.75
2019-02-19T03:29:45.303Z,4.75
2019-02-19T03:30:18.335Z,4.75
2019-02-19T03:30:51.180Z,4.75
2019-02-19T03:31:24.014Z,4.75
2019-02-19T03:31:56.926Z,4.75
2019-02-19T03:32:29.928Z,4.75
2019-02-19T03:33:03.063Z,4.75
2019-02-19T03:33:35.853Z,4.75
2019-02-19T03:34:08.754Z,4.75
2019-02-19T03:34:41.657Z,4.75
2019-02-19T03:35:14.521Z,4.75
2019-02-19T03:35:47.444Z,4.75
2019-02-19T03:36:20.479Z,4.75
2019-02-19T03:36:53.370Z,4.75
2019-02-19T03:37:26.219Z,4.75
2019-02-19T03:37:59.255Z,4.75
2019-02-19T03:38:32.210Z,4.75
2019-02-19T03:39:05.514Z,4.75
2019-02-19T03:39:39.735Z,4.75
2019-02-19T03:40:12.713Z,4.75
2019-02-19T03:40:45.798Z,4.75
2019-02-19T03:41:18.779Z,4.75
2019-02-19T03:41:51.795Z,4.75
2019-02-19T03:42:24.713Z,4.81
2019-02-19T03:42:57.718Z,4.81
2019-02-19T03:43:30.617Z,4.81
2019-02-19T03:44:03.741Z,4.81
2019-02-19T03:44:36.739Z,4.75
2019-02-19T03:45:10.505Z,4.75
2019-02-19T03:45:43.295Z,4.75
2019-02-19T03:46:16.228Z,4.75
2019-02-19T03:46:50.326Z,4.81
2019-02-19T03:47:23.184Z,4.81
2019-02-19T03:47:56.165Z,4.81
2019-02-19T03:48:29.157Z,4.75
2019-02-19T03:49:02.077Z,4.75
2019-02-19T03:49:35.393Z,4.75
2019-02-19T03:50:08.401Z,4.75
2019-02-19T03:50:41.458Z,4.75
2019-02-19T03:51:14.453Z,4.75
2019-02-19T03:51:47.313Z,4.75
2019-02-19T03:52:20.207Z,4.75
2019-02-19T03:52:53.140Z,4.75
2019-02-19T03:53:25.927Z,4.75
2019-02-19T03:53:59.208Z,4.75
2019-02-19T03:54:32.383Z,4.75
2019-02-19T03:55:06.476Z,4.75
2019-02-19T03:55:39.471Z,4.69
2019-02-19T03:56:12.601Z,4.69
2019-02-19T03:56:45.489Z,4.69
2019-02-19T03:57:18.550Z,4.69
2019-02-19T03:57:51.333Z,4.69
2019-02-19T03:58:25.907Z,4.69
2019-02-19T03:58:58.931Z,4.75
2019-02-19T03:59:31.959Z,4.69
2019-02-19T04:00:05.100Z,4.69
2019-02-19T04:00:38.145Z,4.75
2019-02-19T04:01:11.157Z,4.75
2019-02-19T04:01:45.145Z,4.75
2019-02-19T04:02:18.158Z,4.75
2019-02-19T04:02:51.093Z,4.75
2019-02-19T04:03:24.100Z,4.75
2019-02-19T04:03:57.234Z,4.75
2019-02-19T04:04:30.228Z,4.75
2019-02-19T04:05:04.888Z,4.75
2019-02-19T04:05:37.893Z,4.75
2019-02-19T04:06:10.956Z,4.75
2019-02-19T04:06:43.929Z,4.75
2019-02-19T04:07:17.349Z,4.69
2019-02-19T04:07:50.241Z,4.69
2019-02-19T04:08:23.289Z,4.69
2019-02-19T04:08:56.174Z,4.69
2019-02-19T04:09:29.401Z,4.69
2019-02-19T04:10:02.440Z,4.69
2019-02-19T04:10:35.581Z,4.69
2019-02-19T04:11:08.491Z,4.69
2019-02-19T04:11:41.553Z,4.69
2019-02-19T04:12:14.532Z,4.69
2019-02-19T04:12:47.356Z,4.69
2019-02-19T04:13:20.335Z,4.69
2019-02-19T04:13:53.441Z,4.69
2019-02-19T04:14:26.546Z,4.69
2019-02-19T04:14:59.527Z,4.69
2019-02-19T04:15:32.667Z,4.69
2019-02-19T04:16:05.572Z,4.69
2019-02-19T04:16:38.665Z,4.69
2019-02-19T04:17:11.738Z,4.62
2019-02-19T04:17:44.743Z,4.69
2019-02-19T04:18:17.676Z,4.62
2019-02-19T04:18:50.607Z,4.69
2019-02-19T04:19:23.630Z,4.62
2019-02-19T04:19:56.624Z,4.62
2019-02-19T04:20:29.537Z,4.62
2019-02-19T04:21:02.552Z,4.62
2019-02-19T04:21:35.684Z,4.62
2019-02-19T04:22:08.605Z,4.62
2019-02-19T04:22:41.519Z,4.62
2019-02-19T04:23:14.285Z,4.62
2019-02-19T04:23:47.145Z,4.62
2019-02-19T04:24:20.176Z,4.62
2019-02-19T04:24:53.492Z,4.62
2019-02-19T04:25:26.377Z,4.62
2019-02-19T04:25:59.265Z,4.62
2019-02-19T04:26:33.937Z,4.62
2019-02-19T04:27:06.896Z,4.56
2019-02-19T04:27:39.808Z,4.62
2019-02-19T04:28:12.784Z,4.62
2019-02-19T04:28:46.051Z,4.62
2019-02-19T04:29:18.857Z,4.62
2019-02-19T04:29:51.788Z,4.62
2019-02-19T04:30:24.692Z,4.62
2019-02-19T04:30:57.677Z,4.62
2019-02-19T04:31:31.834Z,4.62
2019-02-19T04:32:04.997Z,4.62
2019-02-19T04:32:37.993Z,4.62
2019-02-19T04:33:11.177Z,4.62
2019-02-19T04:33:44.058Z,4.62
2019-02-19T04:34:17.101Z,4.62
2019-02-19T04:34:50.107Z,4.62
2019-02-19T04:35:23.049Z,4.62
2019-02-19T04:35:55.951Z,4.62
2019-02-19T04:36:29.123Z,4.62
2019-02-19T04:37:02.022Z,4.62
2019-02-19T04:37:34.994Z,4.62
2019-02-19T04:38:08.024Z,4.62
2019-02-19T04:38:41.030Z,4.62
2019-02-19T04:39:13.938Z,4.62
2019-02-19T04:39:46.984Z,4.62
2019-02-19T04:40:19.988Z,4.62
2019-02-19T04:40:52.922Z,4.62
2019-02-19T04:41:25.707Z,4.62
2019-02-19T04:41:58.647Z,4.62
2019-02-19T04:42:31.548Z,4.62
2019-02-19T04:43:04.630Z,4.62
2019-02-19T04:43:37.404Z,4.62
2019-02-19T04:44:10.349Z,4.62
2019-02-19T04:44:43.273Z,4.62
2019-02-19T04:45:16.307Z,4.62
2019-02-19T04:45:49.395Z,4.56
2019-02-19T04:46:31.141Z,4.56
2019-02-19T04:46:57.267Z,4.56
2019-02-19T04:47:30.193Z,4.56
2019-02-19T04:48:03.113Z,4.56
2019-02-19T04:48:36.044Z,4.56
2019-02-19T04:49:08.833Z,4.56
2019-02-19T04:49:41.879Z,4.56
2019-02-19T04:50:15.867Z,4.56
2019-02-19T04:50:48.973Z,4.56
2019-02-19T04:51:21.767Z,4.56
2019-02-19T04:51:54.865Z,4.50
2019-02-19T04:52:27.854Z,4.50
2019-02-19T04:53:00.662Z,4.50
2019-02-19T04:53:33.564Z,4.50
2019-02-19T04:54:06.406Z,4.50
2019-02-19T04:54:39.191Z,4.50
2019-02-19T04:55:12.205Z,4.50
2019-02-19T04:55:45.119Z,4.50
2019-02-19T04:56:18.006Z,4.50
2019-02-19T04:56:50.896Z,4.50
2019-02-19T04:57:23.790Z,4.50
2019-02-19T04:57:56.687Z,4.50
2019-02-19T04:58:29.564Z,4.50
2019-02-19T04:59:02.404Z,4.50
2019-02-19T04:59:35.312Z,4.50
2019-02-19T05:00:11.776Z,4.50
2019-02-19T05:00:44.796Z,4.56
2019-02-19T05:01:17.796Z,4.56
2019-02-19T05:01:50.680Z,4.56
2019-02-19T05:02:23.710Z,4.56
2019-02-19T05:02:56.622Z,4.56
2019-02-19T05:03:30.959Z,4.50
2019-02-19T05:04:03.883Z,4.50
2019-02-19T05:04:36.702Z,4.50
2019-02-19T05:05:09.703Z,4.50
2019-02-19T05:05:42.632Z,4.50
2019-02-19T05:06:15.422Z,4.50
2019-02-19T05:06:48.328Z,4.50
2019-02-19T05:07:21.270Z,4.50
2019-02-19T05:07:54.136Z,4.50
2019-02-19T05:08:27.159Z,4.50
2019-02-19T05:09:00.103Z,4.50
2019-02-19T05:09:32.876Z,4.50
2019-02-19T05:10:06.304Z,4.50
2019-02-19T05:10:39.213Z,4.50
2019-02-19T05:11:12.110Z,4.50
2019-02-19T05:11:45.123Z,4.50
2019-02-19T05:12:18.260Z,4.50
2019-02-19T05:12:51.067Z,4.50
2019-02-19T05:13:23.963Z,4.50
2019-02-19T05:13:56.868Z,4.50
2019-02-19T05:14:29.892Z,4.50
2019-02-19T05:15:04.344Z,4.50
2019-02-19T05:15:37.261Z,4.50
2019-02-19T05:16:10.283Z,4.50
2019-02-19T05:16:43.267Z,4.50
2019-02-19T05:17:16.441Z,4.50
2019-02-19T05:17:49.493Z,4.50
2019-02-19T05:18:23.976Z,4.50
2019-02-19T05:18:56.897Z,4.50
2019-02-19T05:19:29.966Z,4.50
2019-02-19T05:20:03.828Z,4.50
2019-02-19T05:20:36.751Z,4.44
2019-02-19T05:21:09.944Z,4.44
2019-02-19T05:21:42.981Z,4.44
2019-02-19T05:22:15.896Z,4.44
2019-02-19T05:22:48.830Z,4.44
2019-02-19T05:23:23.496Z,4.44
2019-02-19T05:23:56.628Z,4.44
2019-02-19T05:24:29.444Z,4.44
2019-02-19T05:25:02.561Z,4.44
2019-02-19T05:25:35.577Z,4.44
2019-02-19T05:26:10.186Z,4.44
2019-02-19T05:26:43.178Z,4.44
2019-02-19T05:27:16.318Z,4.44
2019-02-19T05:27:49.312Z,4.37
2019-02-19T05:28:22.270Z,4.37
2019-02-19T05:28:55.179Z,4.37
2019-02-19T05:29:28.247Z,4.37
2019-02-19T05:30:01.148Z,4.37
2019-02-19T05:30:34.091Z,4.37
2019-02-19T05:31:07.100Z,4.37
2019-02-19T05:31:40.157Z,4.37
2019-02-19T05:32:13.046Z,4.37
2019-02-19T05:32:46.107Z,4.37
2019-02-19T05:33:19.090Z,4.37
2019-02-19T05:33:51.898Z,4.37
2019-02-19T05:34:24.784Z,4.37
2019-02-19T05:34:57.722Z,4.37
2019-02-19T05:35:30.630Z,4.37
2019-02-19T05:36:03.709Z,4.31
2019-02-19T05:36:36.690Z,4.31
2019-02-19T05:37:09.646Z,4.31
2019-02-19T05:37:42.628Z,4.31
2019-02-19T05:38:15.466Z,4.31
2019-02-19T05:38:48.514Z,4.31
2019-02-19T05:39:21.666Z,4.31
2019-02-19T05:39:54.702Z,4.31
2019-02-19T05:40:27.686Z,4.31
2019-02-19T05:41:00.675Z,4.31
2019-02-19T05:41:33.611Z,4.31
2019-02-19T05:42:06.535Z,4.31
2019-02-19T05:42:39.584Z,4.37
2019-02-19T05:43:12.587Z,4.37
2019-02-19T05:43:45.532Z,4.37
2019-02-19T05:44:18.562Z,4.37
2019-02-19T05:44:51.918Z,4.31
2019-02-19T05:45:24.991Z,4.37
2019-02-19T05:45:57.828Z,4.37
2019-02-19T05:46:30.673Z,4.31
2019-02-19T05:47:03.762Z,4.31
2019-02-19T05:47:36.726Z,4.31
2019-02-19T05:48:09.712Z,4.31
2019-02-19T05:48:42.708Z,4.31
2019-02-19T05:49:15.606Z,4.31
2019-02-19T05:49:48.391Z,4.31
2019-02-19T05:50:21.376Z,4.31
2019-02-19T05:50:54.490Z,4.31
2019-02-19T05:51:29.069Z,4.31
2019-02-19T05:52:02.000Z,4.31
2019-02-19T05:52:34.960Z,4.31
2019-02-19T05:53:08.012Z,4.31
2019-02-19T05:53:40.910Z,4.31
2019-02-19T05:54:13.942Z,4.31
2019-02-19T05:54:46.835Z,4.31
2019-02-19T05:55:19.901Z,4.37
2019-02-19T05:55:52.786Z,4.31
2019-02-19T05:56:29.020Z,4.37
2019-02-19T05:57:02.029Z,4.31
2019-02-19T05:57:35.074Z,4.31
2019-02-19T05:58:08.072Z,4.37
2019-02-19T05:58:41.061Z,4.31
2019-02-19T05:59:13.832Z,4.37
2019-02-19T05:59:46.782Z,4.31
2019-02-19T06:00:19.655Z,4.31
2019-02-19T06:00:52.589Z,4.31
2019-02-19T06:01:25.565Z,4.31
2019-02-19T06:01:58.505Z,4.31
2019-02-19T06:02:31.391Z,4.31
2019-02-19T06:03:04.320Z,4.25
2019-02-19T06:03:37.119Z,4.25
2019-02-19T06:04:10.071Z,4.25
2019-02-19T06:04:43.083Z,4.25
2019-02-19T06:05:16.014Z,4.25
2019-02-19T06:05:49.001Z,4.25
2019-02-19T06:06:22.051Z,4.25
2019-02-19T06:06:54.939Z,4.25
2019-02-19T06:07:27.877Z,4.25
2019-02-19T06:08:00.953Z,4.25
2019-02-19T06:08:33.785Z,4.25
2019-02-19T06:09:06.696Z,4.25
2019-02-19T06:09:39.772Z,4.19
2019-02-19T06:10:12.782Z,4.25
2019-02-19T06:10:45.698Z,4.25
2019-02-19T06:11:18.804Z,4.25
2019-02-19T06:11:51.826Z,4.25
2019-02-19T06:12:25.105Z,4.19
2019-02-19T06:12:58.059Z,4.19
2019-02-19T06:13:31.032Z,4.19
2019-02-19T06:14:03.949Z,4.19
2019-02-19T06:14:36.985Z,4.19
2019-02-19T06:15:10.467Z,4.19
2019-02-19T06:15:43.355Z,4.19
2019-02-19T06:16:16.404Z,4.19
2019-02-19T06:16:58.075Z,4.19
2019-02-19T06:17:24.226Z,4.19
2019-02-19T06:17:57.231Z,4.19
2019-02-19T06:18:30.272Z,4.19
2019-02-19T06:19:03.179Z,4.19
2019-02-19T06:19:36.203Z,4.19
2019-02-19T06:20:09.389Z,4.19
2019-02-19T06:20:42.224Z,4.19
2019-02-19T06:21:15.322Z,4.25
2019-02-19T06:21:48.241Z,4.25
2019-02-19T06:22:21.125Z,4.25
2019-02-19T06:22:53.959Z,4.25
2019-02-19T06:23:27.060Z,4.25
2019-02-19T06:24:00.019Z,4.25
2019-02-19T06:24:32.955Z,4.25
2019-02-19T06:25:07.387Z,4.25
2019-02-19T06:25:40.412Z,4.31
2019-02-19T06:26:13.381Z,4.31
2019-02-19T06:26:46.513Z,4.31
2019-02-19T06:27:19.541Z,4.31
2019-02-19T06:27:52.499Z,4.31
2019-02-19T06:28:25.489Z,4.31
2019-02-19T06:28:58.449Z,4.31
2019-02-19T06:29:31.419Z,4.25
2019-02-19T06:30:08.470Z,4.25
2019-02-19T06:30:41.558Z,4.25
2019-02-19T06:31:14.607Z,4.25
2019-02-19T06:31:47.667Z,4.25
2019-02-19T06:32:20.737Z,4.25
2019-02-19T06:32:53.689Z,4.25
2019-02-19T06:33:26.549Z,4.25
2019-02-19T06:33:59.601Z,4.25
2019-02-19T06:34:32.677Z,4.25
2019-02-19T06:35:06.023Z,4.19
2019-02-19T06:35:39.187Z,4.19
2019-02-19T06:36:12.243Z,4.19
2019-02-19T06:36:45.552Z,4.19
2019-02-19T06:37:18.477Z,4.19
2019-02-19T06:37:53.240Z,4.25
2019-02-19T06:38:26.099Z,4.25
2019-02-19T06:38:59.015Z,4.25
2019-02-19T06:39:32.139Z,4.19
2019-02-19T06:40:05.815Z,4.19
2019-02-19T06:40:38.633Z,4.19
2019-02-19T06:41:11.684Z,4.25
2019-02-19T06:41:44.633Z,4.25
2019-02-19T06:42:17.675Z,4.25
2019-02-19T06:42:50.739Z,4.25
2019-02-19T06:43:23.675Z,4.25
2019-02-19T06:43:56.635Z,4.25
2019-02-19T06:44:29.591Z,4.19
2019-02-19T06:45:02.911Z,4.19
2019-02-19T06:45:36.136Z,4.19
2019-02-19T06:46:09.182Z,4.19
2019-02-19T06:46:42.215Z,4.19
2019-02-19T06:47:15.183Z,4.19
2019-02-19T06:47:48.035Z,4.19
2019-02-19T06:48:21.593Z,4.19
2019-02-19T06:48:54.551Z,4.19
2019-02-19T06:49:27.440Z,4.12
2019-02-19T06:50:00.471Z,4.19
2019-02-19T06:50:33.449Z,4.19
2019-02-19T06:51:06.459Z,4.19
2019-02-19T06:51:39.399Z,4.12
2019-02-19T06:52:12.439Z,4.12
2019-02-19T06:52:45.491Z,4.12
2019-02-19T06:53:18.514Z,4.12
2019-02-19T06:53:52.577Z,4.12
2019-02-19T06:54:25.505Z,4.12
2019-02-19T06:54:58.353Z,4.12
2019-02-19T06:55:31.784Z,4.19
2019-02-19T06:56:04.707Z,4.12
2019-02-19T06:56:37.649Z,4.19
2019-02-19T06:57:10.768Z,4.12
2019-02-19T06:57:43.698Z,4.19
2019-02-19T06:58:17.113Z,4.19
2019-02-19T06:58:50.159Z,4.12
2019-02-19T06:59:23.151Z,4.12
2019-02-19T06:59:56.134Z,4.12
2019-02-19T07:00:30.741Z,4.12
2019-02-19T07:01:03.789Z,4.12
2019-02-19T07:01:53.512Z,4.19
2019-02-19T07:02:54.914Z,4.19
2019-02-19T07:03:35.589Z,4.19
2019-02-19T07:04:15.343Z,4.19
2019-02-19T07:04:52.005Z,4.19
2019-02-19T07:05:25.433Z,4.19
2019-02-19T07:05:58.502Z,4.19
2019-02-19T07:06:31.474Z,4.25
2019-02-19T07:07:04.686Z,4.25
2019-02-19T07:07:37.653Z,4.25
2019-02-19T07:08:10.659Z,4.25
2019-02-19T07:08:43.527Z,4.25
2019-02-19T07:09:16.496Z,4.25
2019-02-19T07:09:49.485Z,4.25
2019-02-19T07:10:22.551Z,4.25
2019-02-19T07:10:55.420Z,4.25
2019-02-19T07:11:28.379Z,4.25
2019-02-19T07:12:01.527Z,4.25
2019-02-19T07:12:34.374Z,4.25
2019-02-19T07:13:07.474Z,4.31
2019-02-19T07:13:40.594Z,4.25
2019-02-19T07:14:13.558Z,4.25
2019-02-19T07:14:46.505Z,4.25
2019-02-19T07:15:19.580Z,4.25
2019-02-19T07:15:52.525Z,4.25
2019-02-19T07:16:25.464Z,4.25
2019-02-19T07:16:58.406Z,4.31
2019-02-19T07:17:32.313Z,4.31
2019-02-19T07:18:05.327Z,4.31
2019-02-19T07:18:38.205Z,4.31
2019-02-19T07:19:11.172Z,4.31
2019-02-19T07:19:44.408Z,4.31
2019-02-19T07:20:17.477Z,4.37
2019-02-19T07:20:51.755Z,4.37
2019-02-19T07:21:24.892Z,4.37
2019-02-19T07:21:57.876Z,4.37
2019-02-19T07:22:30.792Z,4.37